Time;durP1;ratioP1;P1;durP2;ratioP2;P2;SDS_P1;SDS_P2;PMS_P1;PMS_P2;Temp;Humidity;BMP_temperature;BMP_pressure;BME280_temperature;BME280_humidity;BME280_pressure;Samples;Min_cycle;Max_cycle;Signal;HPM_P1;HPM_P2
2022/10/10 00:00:36;;;;;;;3.55;2.42;;;9.90;99.90;;;;;;5070739;28;19920;-81
2022/10/10 00:03:02;;;;;;;6.78;2.78;;;9.70;99.90;;;;;;5054359;28;20033;-80
2022/10/10 00:05:29;;;;;;;5.85;3.00;;;9.60;99.90;;;;;;5070449;28;20400;-80
2022/10/10 00:07:54;;;;;;;6.18;2.75;;;9.60;99.90;;;;;;5071002;28;20037;-81
2022/10/10 00:10:20;;;;;;;6.17;2.67;;;9.50;99.90;;;;;;5069216;28;20033;-80
2022/10/10 00:12:46;;;;;;;3.47;2.70;;;10.10;99.90;;;;;;5037516;28;20044;-81
2022/10/10 00:15:13;;;;;;;4.80;2.47;;;9.70;99.90;;;;;;5070589;28;20037;-80
2022/10/10 00:17:39;;;;;;;;;;;9.50;99.90;;;;;;5053879;28;20040;-80
2022/10/10 00:20:05;;;;;;;4.22;2.75;;;9.40;99.90;;;;;;5054245;28;19923;-80
2022/10/10 00:22:31;;;;;;;6.28;2.47;;;9.40;99.90;;;;;;5053564;28;20033;-80
2022/10/10 00:24:57;;;;;;;8.35;2.92;;;9.40;99.90;;;;;;5070593;28;20147;-81
2022/10/10 00:27:23;;;;;;;4.20;2.60;;;9.40;99.90;;;;;;5069799;28;20119;-80
2022/10/10 00:29:48;;;;;;;5.03;2.87;;;9.30;99.90;;;;;;5070509;28;20634;-81
2022/10/10 00:32:14;;;;;;;27.73;3.43;;;9.90;99.90;;;;;;5054027;28;20115;-80
2022/10/10 00:34:40;;;;;;;5.50;2.67;;;9.30;99.90;;;;;;5070234;28;20283;-80
2022/10/10 00:37:06;;;;;;;4.85;2.70;;;9.30;99.90;;;;;;5036763;28;20087;-80
2022/10/10 00:39:31;;;;;;;5.40;2.83;;;9.30;99.90;;;;;;5053074;28;20046;-80
2022/10/10 00:41:57;;;;;;;6.80;2.87;;;9.30;99.90;;;;;;5070329;28;20044;-81
2022/10/10 00:44:22;;;;;;;5.33;2.50;;;9.30;99.90;;;;;;5036742;28;20404;-80
2022/10/10 00:46:48;;;;;;;6.13;2.63;;;9.30;99.90;;;;;;5053818;28;20037;-81
2022/10/10 00:49:18;;;;;;;6.53;2.73;;;9.30;99.90;;;;;;5070263;28;20035;-81
2022/10/10 00:51:47;;;;;;;6.38;2.92;;;9.30;99.90;;;;;;5070136;28;20032;-79
2022/10/10 00:54:16;;;;;;;5.60;2.72;;;9.30;99.90;;;;;;5053223;28;20040;-79
2022/10/10 00:57:11;;;;;;;5.25;3.08;;;9.20;99.90;;;;;;5068136;28;20576;-80
2022/10/10 00:59:39;;;;;;;5.53;2.95;;;9.20;99.90;;;;;;5070265;28;20029;-80
2022/10/10 01:02:05;;;;;;;4.78;2.80;;;9.20;99.90;;;;;;5070666;28;20040;-80
2022/10/10 01:04:40;;;;;;;5.28;2.72;;;9.20;99.90;;;;;;5053506;28;20051;-80
2022/10/10 01:07:21;;;;;;;8.57;3.10;;;9.20;99.90;;;;;;5053547;28;20048;-79
2022/10/10 01:09:50;;;;;;;4.07;2.60;;;9.50;99.90;;;;;;5071613;28;20032;-80
2022/10/10 01:12:44;;;;;;;7.03;2.80;;;9.20;99.90;;;;;;5074392;28;20112;-80
2022/10/10 01:15:18;;;;;;;7.97;3.05;;;9.10;99.90;;;;;;5073886;28;20044;-80
2022/10/10 01:17:53;;;;;;;6.22;3.45;;;9.10;99.90;;;;;;5055308;28;20044;-80
2022/10/10 01:20:50;;;;;;;7.93;3.15;;;9.10;99.90;;;;;;5073990;28;20047;-80
2022/10/10 01:23:18;;;;;;;4.65;3.00;;;9.10;99.90;;;;;;5071577;28;20127;-80
2022/10/10 01:25:49;;;;;;;5.60;2.92;;;9.10;99.90;;;;;;5073324;28;20062;-81
2022/10/10 01:28:40;;;;;;;6.40;3.00;;;9.10;99.90;;;;;;5073364;28;20032;-80
2022/10/10 01:31:08;;;;;;;5.95;2.45;;;9.00;99.90;;;;;;5056672;28;20048;-79
2022/10/10 01:33:51;;;;;;;6.25;2.78;;;9.00;99.90;;;;;;5056387;28;20123;-79
2022/10/10 01:36:30;;;;;;;6.47;3.20;;;8.90;99.90;;;;;;5072212;28;20052;-80
2022/10/10 01:39:26;;;;;;;8.43;3.30;;;9.10;99.90;;;;;;5073682;28;20519;-79
2022/10/10 01:42:05;;;;;;;4.05;2.88;;;8.90;99.90;;;;;;5053480;28;20098;-79
2022/10/10 01:44:30;;;;;;;5.50;3.22;;;8.90;99.90;;;;;;5073082;28;20032;-80
2022/10/10 01:46:57;;;;;;;7.67;2.87;;;8.90;99.90;;;;;;5056921;28;20036;-79
2022/10/10 01:49:29;;;;;;;5.45;2.92;;;8.90;99.90;;;;;;5073310;28;20119;-80
2022/10/10 01:52:04;;;;;;;6.05;3.13;;;8.80;99.90;;;;;;5073759;28;20496;-79
2022/10/10 01:54:49;;;;;;;5.85;2.95;;;8.80;99.90;;;;;;5056336;28;20071;-80
2022/10/10 01:57:18;;;;;;;3.65;2.72;;;8.80;99.90;;;;;;5072931;28;20044;-80
2022/10/10 02:00:06;;;;;;;4.47;2.92;;;8.80;99.90;;;;;;5056459;28;20132;-79
2022/10/10 02:02:38;;;;;;;3.83;3.00;;;8.80;99.90;;;;;;5070668;28;20044;-80
2022/10/10 02:05:07;;;;;;;6.30;2.97;;;8.80;99.90;;;;;;5073754;28;20040;-81
2022/10/10 02:07:51;;;;;;;4.82;3.28;;;8.80;99.90;;;;;;5070162;28;20136;-80
2022/10/10 02:10:22;;;;;;;5.93;3.00;;;8.80;99.90;;;;;;5071132;28;20543;-80
2022/10/10 02:12:49;;;;;;;4.30;3.10;;;8.80;99.90;;;;;;5072808;28;20411;-80
2022/10/10 02:15:20;;;;;;;4.93;3.30;;;8.70;99.90;;;;;;5055593;28;20192;-81
2022/10/10 02:17:47;;;;;;;7.38;3.70;;;8.70;99.90;;;;;;5071584;28;20102;-81
2022/10/10 02:20:18;;;;;;;6.55;3.00;;;8.70;99.90;;;;;;5071272;28;20079;-81
2022/10/10 02:22:45;;;;;;;7.78;3.85;;;8.60;99.90;;;;;;5071373;28;20541;-81
2022/10/10 02:25:11;;;;;;;;;;;8.60;99.90;;;;;;5072072;28;20071;-81
2022/10/10 02:27:41;;;;;;;4.80;3.05;;;8.60;99.90;;;;;;5072526;28;20447;-80
2022/10/10 02:30:08;;;;;;;5.10;2.90;;;8.60;99.90;;;;;;5072496;28;20048;-80
2022/10/10 02:32:38;;;;;;;10.60;3.80;;;8.60;99.90;;;;;;5056244;28;20473;-80
2022/10/10 02:35:10;;;;;;;6.00;3.45;;;8.60;99.90;;;;;;5072696;28;20405;-80
2022/10/10 02:37:38;;;;;;;4.60;2.90;;;8.60;99.90;;;;;;5072251;28;20044;-80
2022/10/10 02:40:06;;;;;;;7.22;3.50;;;8.60;99.90;;;;;;5069993;28;20045;-80
2022/10/10 02:42:34;;;;;;;5.47;3.47;;;8.60;99.90;;;;;;5071986;28;20072;-80
2022/10/10 02:45:00;;;;;;;5.47;3.92;;;8.60;99.90;;;;;;5072186;28;20040;-81
2022/10/10 02:47:26;;;;;;;5.00;3.20;;;8.60;99.90;;;;;;5038846;28;20040;-80
2022/10/10 02:49:52;;;;;;;5.22;3.10;;;8.60;99.90;;;;;;5055784;28;20029;-81
2022/10/10 02:52:18;;;;;;;6.77;3.53;;;8.50;99.90;;;;;;5072485;28;20036;-81
2022/10/10 02:54:44;;;;;;;6.20;4.30;;;8.50;99.90;;;;;;5072088;28;20045;-80
2022/10/10 02:57:10;;;;;;;6.33;3.27;;;8.60;99.90;;;;;;5055619;28;20040;-80
2022/10/10 02:59:35;;;;;;;5.40;3.50;;;8.50;99.90;;;;;;5055861;28;20040;-80
2022/10/10 03:02:01;;;;;;;6.77;4.33;;;8.60;99.90;;;;;;5072243;28;20037;-80
2022/10/10 03:04:27;;;;;;;6.67;3.73;;;8.50;99.90;;;;;;5072062;28;20040;-80
2022/10/10 03:06:53;;;;;;;10.70;4.40;;;8.50;99.90;;;;;;5055068;28;20092;-80
2022/10/10 03:09:19;;;;;;;5.53;3.58;;;8.60;99.90;;;;;;5071774;28;20044;-81
2022/10/10 03:11:45;;;;;;;6.82;3.97;;;8.60;99.90;;;;;;5071682;28;20089;-80
2022/10/10 03:14:11;;;;;;;8.87;3.87;;;8.60;99.90;;;;;;5055126;28;20476;-80
2022/10/10 03:16:36;;;;;;;4.78;3.60;;;8.60;99.90;;;;;;5054972;28;20096;-80
2022/10/10 03:19:03;;;;;;;7.00;4.18;;;8.60;99.90;;;;;;5071871;28;20480;-80
2022/10/10 03:21:28;;;;;;;8.07;4.20;;;8.60;99.90;;;;;;5071826;28;20044;-80
2022/10/10 03:23:54;;;;;;;7.20;3.97;;;8.60;99.90;;;;;;5038164;28;20036;-80
2022/10/10 03:26:20;;;;;;;7.70;3.90;;;8.60;99.90;;;;;;5071324;28;20033;-80
2022/10/10 03:28:45;;;;;;;9.43;4.07;;;8.70;99.90;;;;;;5071119;28;20112;-80
2022/10/10 03:31:11;;;;;;;8.27;3.93;;;8.50;99.90;;;;;;5067339;28;20287;-80
2022/10/10 03:33:37;;;;;;;8.70;4.10;;;8.50;99.90;;;;;;5037764;28;20040;-80
2022/10/10 03:36:03;;;;;;;6.77;3.63;;;8.60;99.90;;;;;;5037985;28;20036;-80
2022/10/10 03:38:29;;;;;;;7.45;4.10;;;8.60;99.90;;;;;;5071222;28;20290;-80
2022/10/10 03:40:54;;;;;;;6.85;4.03;;;8.60;99.90;;;;;;5054325;28;20044;-80
2022/10/10 03:43:20;;;;;;;6.73;4.07;;;8.50;99.90;;;;;;5070205;28;20407;-80
2022/10/10 03:45:48;;;;;;;9.87;4.43;;;8.60;99.90;;;;;;5070331;28;20045;-81
2022/10/10 03:48:15;;;;;;;8.18;4.70;;;8.50;99.90;;;;;;5071097;28;20394;-80
2022/10/10 03:50:41;;;;;;;7.13;4.20;;;9.10;99.90;;;;;;5071222;28;20127;-81
2022/10/10 03:53:07;;;;;;;7.07;4.35;;;8.50;99.90;;;;;;5054396;28;20036;-80
2022/10/10 03:55:33;;;;;;;8.57;4.30;;;8.50;99.90;;;;;;5054727;28;20032;-80
2022/10/10 03:57:59;;;;;;;6.55;3.72;;;8.50;99.90;;;;;;5070715;28;20503;-80
2022/10/10 04:00:25;;;;;;;6.63;4.22;;;8.50;99.90;;;;;;5070814;28;20071;-80
2022/10/10 04:02:52;;;;;;;6.22;4.55;;;8.40;99.90;;;;;;5070975;28;20403;-80
2022/10/10 04:05:18;;;;;;;6.63;4.20;;;8.50;99.90;;;;;;5054714;28;20037;-80
2022/10/10 04:07:43;;;;;;;9.10;4.57;;;9.50;99.90;;;;;;5054023;28;20052;-81
2022/10/10 04:10:09;;;;;;;6.67;4.73;;;8.40;99.90;;;;;;5037393;28;20086;-82
2022/10/10 04:12:35;;;;;;;8.50;4.50;;;8.40;99.90;;;;;;5054539;28;20115;-82
2022/10/10 04:15:01;;;;;;;7.05;4.80;;;8.40;99.90;;;;;;5053650;28;20025;-81
2022/10/10 04:17:27;;;;;;;8.00;4.95;;;8.30;99.90;;;;;;5053717;28;20097;-82
2022/10/10 04:19:52;;;;;;;7.88;4.30;;;8.30;99.90;;;;;;5053626;28;20399;-81
2022/10/10 04:22:18;;;;;;;6.13;4.35;;;8.30;99.90;;;;;;5021431;28;20119;-80
2022/10/10 04:24:44;;;;;;;8.23;4.50;;;8.30;99.90;;;;;;5053706;28;20041;-79
2022/10/10 04:27:10;;;;;;;10.38;4.80;;;8.20;99.90;;;;;;5069943;28;20388;-79
2022/10/10 04:29:36;;;;;;;9.15;4.65;;;8.20;99.90;;;;;;5070372;28;20029;-80
2022/10/10 04:32:02;;;;;;;9.07;5.07;;;8.20;99.90;;;;;;5069875;28;20527;-79
2022/10/10 04:34:27;;;;;;;9.25;5.13;;;8.30;99.90;;;;;;5053462;28;20438;-80
2022/10/10 04:36:53;;;;;;;7.07;4.70;;;8.20;99.90;;;;;;5070056;28;20055;-79
2022/10/10 04:39:20;;;;;;;7.70;4.75;;;8.30;99.90;;;;;;5053564;28;20075;-80
2022/10/10 04:41:48;;;;;;;;;;;8.10;99.90;;;;;;5053724;28;20040;-81
2022/10/10 04:44:15;;;;;;;8.35;5.30;;;7.90;99.90;;;;;;5065222;28;19923;-76
2022/10/10 04:46:41;;;;;;;9.05;5.20;;;8.00;99.90;;;;;;5066704;28;20052;-78
2022/10/10 04:49:07;;;;;;;8.77;5.13;;;8.10;99.90;;;;;;5069193;28;20395;-75
2022/10/10 04:51:32;;;;;;;9.93;4.50;;;8.00;99.90;;;;;;5069422;28;20484;-76
2022/10/10 04:53:58;;;;;;;7.70;4.50;;;8.00;99.90;;;;;;5068672;28;20119;-76
2022/10/10 04:56:25;;;;;;;8.50;5.10;;;8.00;99.90;;;;;;5069158;28;20647;-76
2022/10/10 04:58:51;;;;;;;9.90;5.90;;;7.90;99.90;;;;;;5069575;28;20500;-76
2022/10/10 05:01:16;;;;;;;8.27;5.33;;;7.90;99.90;;;;;;5052465;28;20133;-75
2022/10/10 05:03:42;;;;;;;8.80;5.63;;;7.90;99.90;;;;;;5068535;28;20295;-76
2022/10/10 05:06:08;;;;;;;9.30;5.00;;;7.90;99.90;;;;;;5068912;28;20044;-76
2022/10/10 05:08:33;;;;;;;8.30;5.13;;;8.00;99.90;;;;;;5052942;28;20063;-76
2022/10/10 05:10:59;;;;;;;7.50;5.05;;;8.00;99.90;;;;;;5068908;28;20036;-76
2022/10/10 05:13:25;;;;;;;8.23;5.55;;;7.90;99.90;;;;;;5069373;28;20435;-76
2022/10/10 05:15:51;;;;;;;9.55;5.35;;;7.90;99.90;;;;;;5051527;28;20476;-76
2022/10/10 05:18:17;;;;;;;9.75;5.43;;;7.90;99.90;;;;;;5068522;28;20550;-76
2022/10/10 05:20:46;;;;;;;10.68;5.28;;;8.40;99.90;;;;;;5067985;28;20048;-76
2022/10/10 05:23:13;;;;;;;11.77;6.05;;;8.30;99.90;;;;;;5052291;28;20525;-76
2022/10/10 05:25:38;;;;;;;;;;;7.80;99.90;;;;;;5068740;28;20092;-76
2022/10/10 05:28:04;;;;;;;7.53;5.53;;;7.80;99.90;;;;;;5067839;28;19921;-76
2022/10/10 05:30:29;;;;;;;7.80;4.83;;;7.80;99.90;;;;;;5068325;28;20102;-76
2022/10/10 05:32:55;;;;;;;7.40;4.87;;;7.80;99.90;;;;;;5068277;28;20048;-76
2022/10/10 05:35:21;;;;;;;8.15;5.00;;;7.80;99.90;;;;;;5036326;28;20368;-75
2022/10/10 05:37:47;;;;;;;9.37;5.30;;;7.80;99.90;;;;;;5068910;28;20048;-76
2022/10/10 05:40:13;;;;;;;11.20;5.30;;;7.80;99.90;;;;;;5069428;28;20083;-76
2022/10/10 05:42:38;;;;;;;11.30;6.23;;;7.80;99.90;;;;;;5068920;28;20040;-76
2022/10/10 05:45:04;;;;;;;9.30;5.33;;;7.80;99.90;;;;;;5051785;28;20359;-76
2022/10/10 05:47:30;;;;;;;17.23;5.82;;;7.80;99.90;;;;;;5052427;28;20048;-76
2022/10/10 05:49:56;;;;;;;10.93;5.77;;;7.80;99.90;;;;;;5068792;28;20461;-76
2022/10/10 05:52:21;;;;;;;10.17;5.60;;;7.80;99.90;;;;;;5069057;28;20082;-75
2022/10/10 05:54:47;;;;;;;10.00;5.03;;;7.70;99.90;;;;;;5069405;28;20048;-75
2022/10/10 05:57:13;;;;;;;9.13;6.37;;;7.70;99.90;;;;;;5072737;28;20044;-76
2022/10/10 05:59:38;;;;;;;14.63;5.87;;;7.70;99.90;;;;;;5072582;28;20040;-76
2022/10/10 06:02:04;;;;;;;10.02;6.32;;;7.90;99.90;;;;;;5055855;28;20484;-76
2022/10/10 06:04:30;;;;;;;9.27;5.53;;;8.10;99.90;;;;;;5072673;28;20033;-75
2022/10/10 06:06:55;;;;;;;10.47;6.00;;;7.80;99.90;;;;;;5072208;28;20289;-75
2022/10/10 06:09:21;;;;;;;9.30;5.40;;;7.80;99.90;;;;;;5039306;28;20040;-75
2022/10/10 06:11:47;;;;;;;9.50;6.03;;;7.70;99.90;;;;;;5055519;28;20097;-75
2022/10/10 06:14:12;;;;;;;8.87;6.23;;;7.70;99.90;;;;;;5072328;28;20680;-74
2022/10/10 06:16:38;;;;;;;11.93;6.30;;;7.80;99.90;;;;;;5072438;28;20032;-75
2022/10/10 06:19:04;;;;;;;9.17;5.60;;;7.80;99.90;;;;;;5071848;28;20040;-75
2022/10/10 06:21:30;;;;;;;10.73;6.28;;;7.80;99.90;;;;;;5072766;28;20356;-75
2022/10/10 06:23:56;;;;;;;9.50;5.25;;;7.80;99.90;;;;;;5072069;28;20048;-74
2022/10/10 06:26:21;;;;;;;10.50;6.03;;;7.90;99.90;;;;;;5072035;28;20430;-75
2022/10/10 06:28:49;;;;;;;9.87;5.57;;;7.90;99.90;;;;;;5072076;28;20044;-76
2022/10/10 06:31:15;;;;;;;11.00;7.05;;;8.00;99.90;;;;;;5071530;28;20044;-76
2022/10/10 06:33:44;;;;;;;9.32;5.50;;;8.00;99.90;;;;;;5055350;28;20115;-76
2022/10/10 06:36:10;;;;;;;8.93;5.38;;;8.10;99.90;;;;;;5071741;28;20392;-76
2022/10/10 06:38:38;;;;;;;9.20;5.97;;;8.10;99.90;;;;;;5055679;28;20102;-76
2022/10/10 06:41:05;;;;;;;9.98;6.15;;;8.10;99.90;;;;;;5071563;28;20049;-76
2022/10/10 06:43:31;;;;;;;9.98;6.55;;;8.30;99.90;;;;;;5071731;28;20112;-76
2022/10/10 06:45:58;;;;;;;8.25;5.75;;;8.30;99.90;;;;;;5038648;28;20078;-76
2022/10/10 06:48:24;;;;;;;8.25;5.95;;;8.40;99.90;;;;;;5067320;28;20030;-76
2022/10/10 06:51:01;;;;;;;8.88;5.57;;;8.50;99.90;;;;;;5071607;28;20053;-75
2022/10/10 06:53:27;;;;;;;11.57;6.88;;;8.60;99.90;;;;;;5070458;28;20369;-76
2022/10/10 06:55:54;;;;;;;9.77;6.03;;;8.80;99.90;;;;;;5071366;28;20051;-75
2022/10/10 06:58:20;;;;;;;;;;;9.00;99.90;;;;;;5072062;28;20123;-75
2022/10/10 07:00:55;;;;;;;10.98;5.90;;;9.10;99.90;;;;;;5071825;28;19916;-75
2022/10/10 07:03:21;;;;;;;8.80;5.80;;;9.20;99.90;;;;;;5069533;28;20044;-76
2022/10/10 07:05:52;;;;;;;11.27;5.72;;;9.50;99.90;;;;;;5054761;28;20048;-76
2022/10/10 07:08:18;;;;;;;9.80;6.45;;;9.60;99.90;;;;;;5068462;28;20040;-76
2022/10/10 07:10:44;;;;;;;;;;;9.60;99.90;;;;;;5071914;28;20085;-76
2022/10/10 07:13:10;;;;;;;9.55;5.72;;;9.60;99.90;;;;;;5071080;28;20359;-76
2022/10/10 07:15:36;;;;;;;8.88;5.85;;;9.70;99.90;;;;;;5071448;28;20357;-76
2022/10/10 07:18:01;;;;;;;8.32;5.85;;;9.70;99.90;;;;;;5070956;28;20049;-76
2022/10/10 07:20:27;;;;;;;11.27;6.07;;;9.90;99.90;;;;;;5071645;28;20036;-76
2022/10/10 07:22:53;;;;;;;10.97;6.00;;;10.00;99.90;;;;;;5054326;28;20047;-76
2022/10/10 07:25:21;;;;;;;10.05;6.13;;;10.10;99.90;;;;;;5071421;28;20321;-76
2022/10/10 07:27:47;;;;;;;9.27;6.00;;;10.10;99.90;;;;;;5054408;28;20492;-76
2022/10/10 07:30:14;;;;;;;7.78;5.55;;;10.30;99.90;;;;;;5070755;28;20516;-76
2022/10/10 07:32:39;;;;;;;8.70;6.07;;;10.30;99.90;;;;;;5054134;28;20115;-76
2022/10/10 07:35:06;;;;;;;11.43;6.22;;;10.50;99.90;;;;;;5070320;28;20115;-76
2022/10/10 07:37:31;;;;;;;10.18;5.53;;;10.70;99.90;;;;;;5070991;28;20187;-76
2022/10/10 07:39:57;;;;;;;10.27;5.77;;;11.00;99.90;;;;;;5054281;28;20044;-76
2022/10/10 07:42:23;;;;;;;12.97;6.40;;;11.00;99.90;;;;;;5070583;28;20086;-76
2022/10/10 07:44:48;;;;;;;8.98;5.82;;;10.90;99.90;;;;;;5070991;28;20425;-76
2022/10/10 07:47:14;;;;;;;8.87;5.53;;;11.00;99.90;;;;;;5070215;28;20040;-76
2022/10/10 07:49:40;;;;;;;8.80;5.20;;;11.20;99.90;;;;;;5054429;28;20302;-76
2022/10/10 07:52:06;;;;;;;9.57;5.30;;;11.60;99.90;;;;;;5070238;28;20082;-76
2022/10/10 07:54:32;;;;;;;8.60;5.27;;;12.40;99.90;;;;;;5070847;28;20068;-76
2022/10/10 07:56:58;;;;;;;11.23;5.80;;;13.10;99.90;;;;;;5070590;28;20048;-76
2022/10/10 07:59:24;;;;;;;9.02;5.57;;;13.70;99.90;;;;;;5070363;28;20043;-77
2022/10/10 08:01:50;;;;;;;7.60;4.88;;;14.00;99.90;;;;;;5070834;28;20076;-77
2022/10/10 08:04:16;;;;;;;7.50;5.10;;;14.40;99.90;;;;;;5070286;28;20561;-77
2022/10/10 08:06:42;;;;;;;7.45;5.00;;;14.90;99.90;;;;;;5053954;28;20109;-76
2022/10/10 08:09:08;;;;;;;8.55;5.20;;;15.10;99.90;;;;;;5053156;28;20048;-77
2022/10/10 08:11:34;;;;;;;10.07;5.20;;;15.10;99.90;;;;;;5054010;28;20041;-77
2022/10/10 08:13:59;;;;;;;9.55;5.15;;;15.40;99.90;;;;;;5054124;28;20535;-77
2022/10/10 08:16:26;;;;;;;6.68;4.88;;;15.50;99.90;;;;;;5053624;28;20169;-77
2022/10/10 08:18:52;;;;;;;7.45;5.07;;;15.60;99.90;;;;;;5069842;28;20123;-76
2022/10/10 08:21:17;;;;;;;7.90;4.90;;;15.40;99.90;;;;;;5069543;28;20127;-76
2022/10/10 08:23:44;;;;;;;6.88;5.25;;;15.40;99.90;;;;;;5037176;28;20040;-76
2022/10/10 08:26:11;;;;;;;6.47;5.00;;;15.90;99.90;;;;;;5053064;28;20056;-77
2022/10/10 08:28:38;;;;;;;9.55;4.78;;;16.50;99.90;;;;;;5070034;28;20122;-77
2022/10/10 08:31:06;;;;;;;8.48;5.20;;;16.80;99.90;;;;;;5069625;28;20145;-77
2022/10/10 08:33:31;;;;;;;6.63;4.50;;;16.70;99.90;;;;;;5053545;28;20051;-77
2022/10/10 08:35:57;;;;;;;7.07;4.70;;;16.90;99.90;;;;;;5053665;28;20032;-77
2022/10/10 08:38:23;;;;;;;7.32;4.80;;;17.30;99.90;;;;;;5069607;28;20462;-77
2022/10/10 08:40:52;;;;;;;7.07;4.32;;;17.30;99.90;;;;;;5070172;28;20742;-77
2022/10/10 08:43:30;;;;;;;6.88;4.90;;;17.40;99.90;;;;;;5069485;28;20040;-77
2022/10/10 08:46:01;;;;;;;6.47;4.95;;;17.30;99.90;;;;;;5052059;28;20047;-77
2022/10/10 08:48:29;;;;;;;7.00;4.78;;;17.60;99.90;;;;;;5067868;28;20050;-77
2022/10/10 08:51:00;;;;;;;7.45;5.03;;;18.00;99.90;;;;;;5070134;28;20041;-77
2022/10/10 08:53:31;;;;;;;8.98;4.57;;;18.00;99.90;;;;;;5067949;28;20036;-77
2022/10/10 08:55:57;;;;;;;6.85;4.68;;;18.30;99.90;;;;;;5070386;28;20372;-77
2022/10/10 08:58:29;;;;;;;6.78;4.47;;;18.50;99.90;;;;;;5052953;28;20036;-77
2022/10/10 09:01:17;;;;;;;8.57;4.68;;;18.50;99.90;;;;;;5070090;28;20056;-77
2022/10/10 09:03:59;;;;;;;6.05;4.50;;;18.50;99.90;;;;;;5068527;28;20040;-77
2022/10/10 09:07:06;;;;;;;7.22;4.57;;;18.40;99.90;;;;;;5068570;28;20098;-76
2022/10/10 09:09:59;;;;;;;6.38;4.60;;;18.60;99.90;;;;;;5038858;28;20056;-77
2022/10/10 09:12:51;;;;;;;6.78;4.50;;;18.90;99.90;;;;;;5067229;28;20120;-77
2022/10/10 09:15:26;;;;;;;6.95;4.50;;;19.20;99.90;;;;;;5052702;28;20040;-76
2022/10/10 09:18:22;;;;;;;8.50;4.95;;;19.60;99.90;;;;;;5069866;28;20102;-76
2022/10/10 09:20:54;;;;;;;8.20;4.63;;;19.60;99.90;;;;;;5069970;28;20106;-76
2022/10/10 09:23:29;;;;;;;9.38;5.00;;;19.80;99.90;;;;;;5069368;28;20089;-76
2022/10/10 09:26:15;;;;;;;8.98;4.95;;;19.80;99.90;;;;;;5068041;28;20080;-76
2022/10/10 09:29:06;;;;;;;10.15;4.70;;;19.90;99.90;;;;;;5069370;28;20397;-77
2022/10/10 09:31:38;;;;;;;9.35;4.75;;;19.80;99.90;;;;;;5043572;28;20083;-77
2022/10/10 09:34:18;;;;;;;8.82;4.88;;;19.30;99.90;;;;;;5057075;28;20040;-76
2022/10/10 09:36:45;;;;;;;7.18;4.78;;;18.90;99.90;;;;;;5071507;28;20535;-76
2022/10/10 09:39:23;;;;;;;7.55;4.90;;;18.60;99.90;;;;;;5072297;28;20446;-76
2022/10/10 09:42:03;;;;;;;7.30;5.28;;;18.70;99.90;;;;;;5073339;28;20127;-77
2022/10/10 09:44:30;;;;;;;10.38;4.95;;;18.70;99.90;;;;;;5073909;28;20489;-77
2022/10/10 09:46:58;;;;;;;6.70;4.93;;;18.60;99.90;;;;;;5057080;28;20044;-77
2022/10/10 09:49:24;;;;;;;8.70;4.93;;;18.40;99.90;;;;;;5073185;28;20045;-76
2022/10/10 09:51:50;;;;;;;7.45;4.75;;;18.40;99.90;;;;;;5056632;28;20047;-76
2022/10/10 09:54:19;;;;;;;9.30;5.30;;;18.60;99.90;;;;;;5073685;28;20037;-76
2022/10/10 09:56:55;;;;;;;9.05;4.82;;;18.60;99.90;;;;;;5073838;28;20106;-76
2022/10/10 09:59:43;;;;;;;7.53;4.68;;;18.90;99.90;;;;;;5072829;28;20060;-77
2022/10/10 10:02:26;;;;;;;7.45;4.60;;;19.40;99.90;;;;;;5071619;28;20044;-77
2022/10/10 10:04:53;;;;;;;8.85;4.90;;;19.80;99.90;;;;;;5056823;28;20040;-76
2022/10/10 10:07:32;;;;;;;5.80;4.47;;;19.90;99.90;;;;;;5073053;28;20400;-76
2022/10/10 10:10:18;;;;;;;9.10;4.70;;;20.00;99.90;;;;;;5071037;28;20033;-77
2022/10/10 10:12:45;;;;;;;7.00;5.00;;;20.00;99.90;;;;;;5072079;28;20047;-77
2022/10/10 10:15:20;;;;;;;6.88;4.88;;;19.90;99.90;;;;;;5072593;28;20086;-77
2022/10/10 10:17:46;;;;;;;8.95;5.25;;;20.00;99.90;;;;;;5073107;28;20517;-76
2022/10/10 10:20:31;;;;;;;;;;;19.70;99.90;;;;;;5073270;28;20079;-76
2022/10/10 10:22:57;;;;;;;9.95;5.03;;;19.40;99.90;;;;;;5073227;28;19924;-77
2022/10/10 10:25:34;;;;;;;7.85;4.85;;;19.10;99.90;;;;;;5072428;28;20223;-76
2022/10/10 10:28:09;;;;;;;6.03;4.45;;;19.00;99.90;;;;;;5056019;28;20135;-76
2022/10/10 10:30:36;;;;;;;6.90;4.70;;;19.50;99.90;;;;;;5072606;28;20123;-75
2022/10/10 10:33:31;;;;;;;7.57;4.70;;;19.90;99.90;;;;;;5070391;28;20048;-76
2022/10/10 10:36:14;;;;;;;7.10;5.13;;;19.40;99.90;;;;;;5072245;28;20055;-76
2022/10/10 10:38:54;;;;;;;7.85;4.88;;;19.40;99.90;;;;;;5071061;28;20032;-76
2022/10/10 10:41:23;;;;;;;9.38;4.88;;;19.70;99.90;;;;;;5055178;28;20029;-76
2022/10/10 10:44:21;;;;;;;8.07;4.60;;;20.10;99.90;;;;;;5055888;28;20079;-77
2022/10/10 10:47:03;;;;;;;7.00;4.82;;;20.70;99.90;;;;;;5070199;28;20402;-77
2022/10/10 10:49:39;;;;;;;8.20;5.00;;;21.40;99.90;;;;;;5070403;28;20044;-77
2022/10/10 10:52:27;;;;;;;8.07;4.25;;;21.80;99.90;;;;;;5070484;28;20384;-76
2022/10/10 10:54:56;;;;;;;6.07;4.38;;;21.40;99.90;;;;;;5055288;28;20492;-77
2022/10/10 10:57:24;;;;;;;7.07;4.47;;;21.00;99.90;;;;;;5071884;28;20071;-78
2022/10/10 11:00:13;;;;;;;7.30;4.35;;;20.70;99.90;;;;;;5071854;28;20040;-77
2022/10/10 11:02:52;;;;;;;8.63;4.32;;;20.30;99.90;;;;;;5055524;28;20400;-77
2022/10/10 11:05:30;;;;;;;11.07;4.30;;;20.10;99.90;;;;;;5055517;28;20047;-77
2022/10/10 11:08:34;;;;;;;6.85;4.38;;;19.80;99.90;;;;;;5072512;28;20040;-77
2022/10/10 11:11:27;;;;;;;7.47;4.90;;;19.20;99.90;;;;;;5055328;28;20036;-77
2022/10/10 11:14:17;;;;;;;7.18;4.30;;;18.80;99.90;;;;;;5071343;28;20044;-77
2022/10/10 11:16:51;;;;;;;7.55;4.43;;;18.50;99.90;;;;;;5070701;28;20127;-77
2022/10/10 11:19:31;;;;;;;9.23;4.40;;;18.20;99.90;;;;;;5062139;28;20068;-77
2022/10/10 11:22:12;;;;;;;5.82;4.57;;;18.00;99.90;;;;;;5071994;28;20515;-77
2022/10/10 11:24:59;;;;;;;7.47;4.60;;;17.60;99.90;;;;;;5072239;28;20553;-77
2022/10/10 11:27:40;;;;;;;10.38;4.95;;;17.40;99.90;;;;;;5069284;28;20425;-75
2022/10/10 11:30:28;;;;;;;10.93;5.03;;;17.40;99.90;;;;;;5053450;28;20048;-76
2022/10/10 11:33:20;;;;;;;6.30;4.90;;;17.10;99.90;;;;;;5070846;28;20064;-76
2022/10/10 11:36:04;;;;;;;9.63;5.75;;;17.00;99.90;;;;;;5065577;28;20496;-76
2022/10/10 11:38:43;;;;;;;9.82;5.63;;;16.80;99.90;;;;;;5061656;28;20131;-77
2022/10/10 11:41:15;;;;;;;12.05;5.88;;;16.70;99.90;;;;;;5054570;28;20075;-76
2022/10/10 11:43:55;;;;;;;8.50;5.40;;;16.60;99.90;;;;;;5055333;28;20039;-77
2022/10/10 11:46:25;;;;;;;11.23;5.85;;;16.50;99.90;;;;;;5071252;28;20415;-77
2022/10/10 11:49:16;;;;;;;9.55;6.22;;;16.40;99.90;;;;;;5071422;28;20042;-77
2022/10/10 11:52:18;;;;;;;13.60;6.05;;;16.40;99.90;;;;;;5069727;28;20501;-77
2022/10/10 11:54:53;;;;;;;12.00;5.97;;;16.40;99.90;;;;;;5050269;28;20051;-77
2022/10/10 11:57:53;;;;;;;7.60;5.88;;;16.40;99.90;;;;;;5070640;28;20040;-77
2022/10/10 12:00:19;;;;;;;9.75;6.18;;;16.40;99.90;;;;;;5067932;28;20045;-77
2022/10/10 12:02:46;;;;;;;12.35;6.47;;;16.30;99.90;;;;;;5069043;28;20545;-77
2022/10/10 12:05:22;;;;;;;13.63;6.45;;;16.30;99.90;;;;;;5071309;28;20064;-76
2022/10/10 12:08:00;;;;;;;10.82;6.38;;;16.30;99.90;;;;;;5069454;28;20079;-76
2022/10/10 12:10:42;;;;;;;10.75;6.75;;;16.20;99.90;;;;;;5068938;28;20048;-76
2022/10/10 12:13:30;;;;;;;10.75;7.38;;;16.20;99.90;;;;;;5070041;28;20441;-76
2022/10/10 12:16:00;;;;;;;12.52;7.18;;;16.20;99.90;;;;;;5054137;28;20036;-76
2022/10/10 12:18:38;;;;;;;8.80;7.20;;;16.20;99.90;;;;;;5070321;28;20504;-76
2022/10/10 12:21:14;;;;;;;10.65;6.95;;;16.10;99.90;;;;;;5070887;28;20036;-76
2022/10/10 12:23:47;;;;;;;9.68;6.53;;;16.00;99.90;;;;;;5070334;28;20048;-76
2022/10/10 12:26:19;;;;;;;13.18;7.82;;;16.00;99.90;;;;;;5070299;28;20044;-76
2022/10/10 12:29:08;;;;;;;12.82;7.80;;;16.10;99.90;;;;;;5070650;28;20432;-76
2022/10/10 12:31:36;;;;;;;16.90;7.90;;;16.00;99.90;;;;;;5052719;28;20059;-76
2022/10/10 12:34:15;;;;;;;11.82;7.50;;;16.00;99.90;;;;;;5070674;28;20127;-76
2022/10/10 12:36:53;;;;;;;13.60;7.82;;;15.90;99.90;;;;;;5069820;28;20090;-75
2022/10/10 12:39:19;;;;;;;12.65;8.00;;;15.80;99.90;;;;;;5051418;28;20085;-77
2022/10/10 12:41:51;;;;;;;12.63;7.10;;;15.80;99.90;;;;;;5070730;28;20068;-75
2022/10/10 12:44:21;;;;;;;13.05;7.82;;;15.80;99.90;;;;;;5070804;28;20445;-77
2022/10/10 12:47:13;;;;;;;12.77;8.02;;;15.70;99.90;;;;;;5070550;28;20044;-77
2022/10/10 12:49:52;;;;;;;15.05;7.88;;;15.60;99.90;;;;;;5053312;28;20036;-77
2022/10/10 12:52:31;;;;;;;13.55;7.88;;;15.60;99.90;;;;;;5069724;28;20036;-77
2022/10/10 12:55:16;;;;;;;15.27;8.02;;;15.60;99.90;;;;;;5070350;28;20102;-77
2022/10/10 12:57:44;;;;;;;14.25;8.77;;;15.50;99.90;;;;;;5050974;28;20045;-77
2022/10/10 13:00:35;;;;;;;13.82;8.63;;;15.40;99.90;;;;;;5069622;28;20098;-77
2022/10/10 13:03:09;;;;;;;13.88;8.48;;;15.40;99.90;;;;;;5052985;28;20043;-76
2022/10/10 13:05:38;;;;;;;14.35;8.18;;;15.30;99.90;;;;;;5068529;28;20119;-76
2022/10/10 13:08:10;;;;;;;15.63;8.55;;;15.30;99.90;;;;;;5053101;28;20082;-76
2022/10/10 13:10:35;;;;;;;14.38;8.48;;;15.30;99.90;;;;;;5069680;28;20128;-76
2022/10/10 13:13:15;;;;;;;15.40;8.38;;;15.20;99.90;;;;;;5070852;28;20112;-77